McLoud, Oklahoma
Current Conditions -  °F | °C
As of 9:15 AM on Saturday 22 Nov 2014 (Local Time) from KSNL Reporting Station
Thunderstorm Thunderstorm  
Wind Chill: 59°   Ceiling: 4300
Heat Index: 59°   Visibility: 5mi
Dew Point: 59°   Wind: 9mph
Humidity: 100%   Direction: 120°ESE
Pressure: 30.05"   Gusts: NA
Location:  35.44°N, 97.09°W
Report Text: KSNL 221515Z AUTO 12008KT 5SM VCTSRA SCT029 BKN043 OVC075 15/15 A3005 RMK AO2 LTG DSNT ALQS P0003
Loading
Personal Weather Stations






























Interactive Weather Map New forecast layout! Learn more

10-Day Weather Forecast

Advertisements
Track Severe Weather on mobile